createdAt,value
2022-11-16T00:02:33.204Z,-5.99
2022-11-16T00:05:17.383Z,-5.93
2022-11-16T00:10:59.926Z,-5.60
2022-11-16T00:16:35.759Z,-5.69
2022-11-16T00:19:34.359Z,-5.74
2022-11-16T00:22:36.177Z,-5.61
2022-11-16T00:25:24.372Z,-5.31
2022-11-16T00:28:01.854Z,-5.14
2022-11-16T00:30:54.881Z,-5.03
2022-11-16T00:33:42.195Z,-4.87
2022-11-16T00:36:37.725Z,-4.61
2022-11-16T00:39:24.670Z,-4.41
2022-11-16T00:42:05.349Z,-4.17
2022-11-16T00:44:45.870Z,-3.92
2022-11-16T00:47:19.452Z,-3.72
2022-11-16T00:49:58.057Z,-3.58
2022-11-16T00:53:05.294Z,-3.45
2022-11-16T00:55:54.316Z,-3.26
2022-11-16T00:58:32.888Z,-3.09
2022-11-16T01:01:21.443Z,-3.09
2022-11-16T01:03:56.834Z,-2.90
2022-11-16T01:06:44.778Z,-2.80
2022-11-16T01:09:37.435Z,-2.70
2022-11-16T01:12:24.114Z,-2.53
2022-11-16T01:15:09.095Z,-2.47
2022-11-16T01:17:56.233Z,-2.41
2022-11-16T01:20:51.173Z,-2.32
2022-11-16T01:23:36.895Z,-2.25
2022-11-16T01:26:16.393Z,-2.36
2022-11-16T01:29:01.567Z,-2.33
2022-11-16T01:31:40.860Z,-2.14
2022-11-16T01:34:27.296Z,-2.06
2022-11-16T01:37:15.484Z,-1.92
2022-11-16T01:40:00.193Z,-1.89
2022-11-16T01:42:43.682Z,-1.92
2022-11-16T01:45:33.501Z,-1.94
2022-11-16T01:48:20.686Z,-1.88
2022-11-16T01:51:04.963Z,-1.73
2022-11-16T01:54:00.261Z,-1.80
2022-11-16T01:56:39.795Z,-1.93
2022-11-16T01:59:41.149Z,-1.67
2022-11-16T02:02:25.314Z,-1.67
2022-11-16T02:05:09.146Z,-1.64
2022-11-16T02:08:47.285Z,-1.57
2022-11-16T02:11:49.792Z,-1.34
2022-11-16T02:15:13.382Z,-1.29
2022-11-16T02:18:00.290Z,-1.27
2022-11-16T02:21:00.783Z,-1.17
2022-11-16T02:24:30.888Z,-1.16
2022-11-16T02:27:37.274Z,-1.16
2022-11-16T02:30:39.836Z,-1.38
2022-11-16T02:33:27.170Z,-1.01
2022-11-16T02:39:14.329Z,-0.97
2022-11-16T02:42:06.740Z,-0.83
2022-11-16T02:44:52.542Z,-1.05
2022-11-16T02:47:47.912Z,-0.80
2022-11-16T02:51:01.654Z,-0.75
2022-11-16T02:53:55.770Z,-0.85
2022-11-16T02:56:58.330Z,-0.69
2022-11-16T03:00:00.825Z,-0.70
2022-11-16T03:02:54.019Z,-0.67
2022-11-16T03:08:30.190Z,-0.55
2022-11-16T03:11:22.320Z,-0.51
2022-11-16T03:14:08.522Z,-0.41
2022-11-16T03:17:07.484Z,-0.27
2022-11-16T03:19:52.379Z,-0.26
2022-11-16T03:22:47.560Z,-0.28
2022-11-16T03:25:55.115Z,-0.20
2022-11-16T03:31:46.620Z,-0.03
2022-11-16T03:34:47.765Z,-0.39
2022-11-16T03:37:50.863Z,-0.17
2022-11-16T03:40:30.324Z,-0.27
2022-11-16T03:43:11.989Z,-0.22
2022-11-16T03:45:55.970Z,-0.23
2022-11-16T03:48:51.242Z,-0.26
2022-11-16T03:51:36.376Z,-0.22
2022-11-16T03:54:33.159Z,-0.14
2022-11-16T03:57:24.848Z,-0.03
2022-11-16T04:00:07.727Z,-0.02
2022-11-16T04:03:14.776Z,0.12
2022-11-16T04:06:10.168Z,0.20
2022-11-16T04:09:06.468Z,0.12
2022-11-16T04:15:25.471Z,0.21
2022-11-16T04:18:23.483Z,-0.23
2022-11-16T04:21:14.803Z,0.19
2022-11-16T04:24:09.741Z,0.15
2022-11-16T04:27:06.971Z,0.21
2022-11-16T04:29:52.192Z,0.17
2022-11-16T04:32:45.898Z,0.13
2022-11-16T04:35:49.765Z,0.07
2022-11-16T04:38:27.508Z,0.07
2022-11-16T04:41:35.200Z,-0.01
2022-11-16T04:44:18.027Z,-0.01
2022-11-16T04:47:15.068Z,0.10
2022-11-16T04:50:07.469Z,0.11
2022-11-16T04:52:48.676Z,0.10
2022-11-16T04:55:29.831Z,0.07
2022-11-16T04:58:12.386Z,-0.01
2022-11-16T05:01:00.755Z,0.02
2022-11-16T05:03:51.138Z,-0.06
2022-11-16T05:06:37.487Z,-0.13
2022-11-16T05:09:17.161Z,-0.16
2022-11-16T05:12:01.448Z,-0.28
2022-11-16T05:14:41.097Z,-0.29
2022-11-16T05:17:25.060Z,-0.32
2022-11-16T05:20:45.616Z,-0.34
2022-11-16T05:23:39.081Z,-0.35
2022-11-16T05:26:20.242Z,-0.40
2022-11-16T05:29:12.212Z,-0.44
2022-11-16T05:32:03.970Z,-0.78
2022-11-16T05:34:46.506Z,-0.61
2022-11-16T05:37:33.191Z,-0.77
2022-11-16T05:40:25.401Z,-0.67
2022-11-16T05:43:09.308Z,-0.68
2022-11-16T05:45:54.837Z,-0.84
2022-11-16T05:48:39.045Z,-0.75
2022-11-16T05:51:35.516Z,-0.85
2022-11-16T05:54:28.452Z,-0.96
2022-11-16T05:57:13.778Z,-1.03
2022-11-16T06:00:05.409Z,-1.22
2022-11-16T06:02:53.455Z,-1.39
2022-11-16T06:05:40.657Z,-1.53
2022-11-16T06:08:22.238Z,-1.60
2022-11-16T06:11:18.542Z,-1.78
2022-11-16T06:14:12.522Z,-1.71
2022-11-16T06:16:55.199Z,-1.79
2022-11-16T06:19:53.892Z,-1.89
2022-11-16T06:23:03.103Z,-2.05
2022-11-16T06:26:20.131Z,-2.07
2022-11-16T06:29:14.730Z,-2.18
2022-11-16T06:31:58.215Z,-2.26
2022-11-16T06:34:40.801Z,-2.36
2022-11-16T06:37:24.123Z,-2.46
2022-11-16T06:40:19.872Z,-2.51
2022-11-16T06:42:56.871Z,-2.57
2022-11-16T06:45:44.356Z,-2.65
2022-11-16T06:48:24.755Z,-2.75
2022-11-16T06:51:18.617Z,-2.82
2022-11-16T06:57:09.645Z,-2.89
2022-11-16T07:00:02.025Z,-2.93
2022-11-16T07:02:49.747Z,-2.99
2022-11-16T07:05:54.061Z,-2.99
2022-11-16T07:08:35.568Z,-3.11
2022-11-16T07:11:33.379Z,-3.34
2022-11-16T07:14:18.450Z,-3.32
2022-11-16T07:17:09.611Z,-3.43
2022-11-16T07:23:40.894Z,-3.68
2022-11-16T07:29:11.868Z,-3.79
2022-11-16T07:31:56.465Z,-3.85
2022-11-16T07:34:51.148Z,-3.98
2022-11-16T07:37:49.543Z,-3.95
2022-11-16T07:40:29.187Z,-4.01
2022-11-16T07:43:13.495Z,-4.03
2022-11-16T07:45:48.460Z,-4.05
2022-11-16T07:48:37.119Z,-4.04
2022-11-16T07:51:28.505Z,-4.03
2022-11-16T07:54:23.283Z,-4.28
2022-11-16T07:57:02.969Z,-4.05
2022-11-16T07:59:41.689Z,-4.09
2022-11-16T08:02:43.266Z,-4.09
2022-11-16T08:05:24.284Z,-4.13
2022-11-16T08:08:06.957Z,-4.17
2022-11-16T08:10:54.880Z,-4.19
2022-11-16T08:13:30.929Z,-4.11
2022-11-16T08:16:12.427Z,-4.09
2022-11-16T08:19:43.235Z,-4.04
2022-11-16T08:22:27.954Z,-3.93
2022-11-16T08:25:09.709Z,-3.93
2022-11-16T08:28:10.774Z,-3.84
2022-11-16T08:30:54.127Z,-3.92
2022-11-16T08:33:35.762Z,-4.12
2022-11-16T08:36:34.162Z,-4.32
2022-11-16T08:39:36.314Z,-4.34
2022-11-16T08:42:22.571Z,-4.44
2022-11-16T08:45:10.510Z,-4.48
2022-11-16T08:48:03.423Z,-4.51
2022-11-16T08:51:17.563Z,-4.51
2022-11-16T08:59:53.129Z,-4.52
2022-11-16T09:02:53.597Z,-4.41
2022-11-16T09:05:50.472Z,-4.43
2022-11-16T09:08:29.041Z,-4.35
2022-11-16T09:11:05.263Z,-4.44
2022-11-16T09:13:44.185Z,-4.65
2022-11-16T09:19:32.574Z,-4.56
2022-11-16T09:22:11.407Z,-4.80
2022-11-16T09:24:51.623Z,-4.66
2022-11-16T09:27:35.932Z,-4.81
2022-11-16T09:30:27.182Z,-4.87
2022-11-16T09:33:33.611Z,-5.22
2022-11-16T09:36:43.899Z,-5.04
2022-11-16T09:39:57.108Z,-5.09
2022-11-16T09:42:50.373Z,-5.05
2022-11-16T09:45:43.992Z,-5.08
2022-11-16T09:48:31.477Z,-5.02
2022-11-16T09:51:36.862Z,-5.09
2022-11-16T09:54:21.660Z,-5.11
2022-11-16T09:57:16.618Z,-5.20
2022-11-16T10:00:29.577Z,-5.20
2022-11-16T10:03:22.938Z,-5.31
2022-11-16T10:06:13.021Z,-5.41
2022-11-16T10:09:08.817Z,-5.48
2022-11-16T10:12:23.833Z,-5.88
2022-11-16T10:15:45.553Z,-5.60
2022-11-16T10:18:45.817Z,-5.65
2022-11-16T10:21:48.564Z,-5.69
2022-11-16T10:25:07.910Z,-5.77
2022-11-16T10:28:28.926Z,-6.11
2022-11-16T10:31:20.784Z,-5.77
2022-11-16T10:34:05.069Z,-5.69
2022-11-16T10:36:55.935Z,-5.64
2022-11-16T10:39:48.080Z,-5.80
2022-11-16T10:42:37.081Z,-5.80
2022-11-16T10:45:38.215Z,-5.80
2022-11-16T10:48:57.217Z,-5.93
2022-11-16T10:51:36.373Z,-6.09
2022-11-16T10:54:31.387Z,-6.17
2022-11-16T10:57:19.019Z,-6.26
2022-11-16T11:03:19.427Z,-6.30
2022-11-16T11:06:02.088Z,-6.15
2022-11-16T11:08:40.484Z,-6.09
2022-11-16T11:11:44.847Z,-6.15
2022-11-16T11:14:34.295Z,-6.20
2022-11-16T11:17:35.029Z,-6.34
2022-11-16T11:21:08.127Z,-6.32
2022-11-16T11:27:44.468Z,-6.43
2022-11-16T11:30:25.920Z,-6.29
2022-11-16T11:33:31.501Z,-6.43
2022-11-16T11:36:26.108Z,-6.47
2022-11-16T11:39:12.223Z,-6.42
2022-11-16T11:42:21.447Z,-6.57
2022-11-16T11:45:03.998Z,-6.57
2022-11-16T11:47:58.101Z,-6.63
2022-11-16T11:51:30.171Z,-6.69
2022-11-16T11:54:46.073Z,-6.71
2022-11-16T11:57:31.151Z,-6.75
2022-11-16T12:00:16.881Z,-6.78
2022-11-16T12:03:27.190Z,-7.10
2022-11-16T12:06:43.739Z,-6.80
2022-11-16T12:09:48.402Z,-6.78
2022-11-16T12:13:03.846Z,-6.91
2022-11-16T12:16:09.711Z,-6.83
2022-11-16T12:19:08.559Z,-7.04
2022-11-16T12:28:27.374Z,-7.56
2022-11-16T12:31:28.021Z,-7.30
2022-11-16T12:34:36.585Z,-7.44
2022-11-16T12:37:35.158Z,-7.54
2022-11-16T12:40:36.987Z,-7.77
2022-11-16T12:43:48.690Z,-7.55
2022-11-16T12:46:38.069Z,-7.60
2022-11-16T12:49:55.383Z,-7.74
2022-11-16T12:53:00.806Z,-7.85
2022-11-16T12:55:54.462Z,-8.05
2022-11-16T12:58:52.938Z,-7.86
2022-11-16T13:01:42.626Z,-7.84
2022-11-16T13:04:21.448Z,-7.82
2022-11-16T13:07:14.419Z,-7.90
2022-11-16T13:10:01.875Z,-8.04
2022-11-16T13:13:21.882Z,-8.12
2022-11-16T13:15:57.625Z,-8.22
2022-11-16T13:18:51.849Z,-8.34
2022-11-16T13:21:56.063Z,-8.49
2022-11-16T13:25:00.380Z,-9.24
2022-11-16T13:27:52.956Z,-8.52
2022-11-16T13:30:45.905Z,-8.58
2022-11-16T13:33:50.715Z,-9.39
2022-11-16T13:37:11.280Z,-8.64
2022-11-16T13:40:27.618Z,-8.43
2022-11-16T13:43:27.270Z,-8.37
2022-11-16T13:46:54.765Z,-8.21
2022-11-16T13:49:57.497Z,-8.08
2022-11-16T13:53:51.319Z,-8.03
2022-11-16T13:56:11.389Z,-8.15
2022-11-16T13:59:15.769Z,-8.03
2022-11-16T14:02:34.894Z,-7.99
2022-11-16T14:05:26.019Z,-8.20
2022-11-16T14:08:22.665Z,-8.40
2022-11-16T14:11:09.960Z,-8.61
2022-11-16T14:13:54.721Z,-8.49
2022-11-16T14:17:15.647Z,-8.49
2022-11-16T14:20:27.114Z,-8.51
2022-11-16T14:23:30.451Z,-8.50
2022-11-16T14:26:17.859Z,-8.51
2022-11-16T14:29:27.172Z,-8.49
2022-11-16T14:32:13.745Z,-8.20
2022-11-16T14:35:14.207Z,-8.27
2022-11-16T14:38:22.217Z,-8.28
2022-11-16T14:40:59.904Z,-8.36
2022-11-16T14:43:54.534Z,-8.42
2022-11-16T14:46:45.108Z,-8.54
2022-11-16T14:49:38.789Z,-8.47
2022-11-16T14:52:46.535Z,-8.73
2022-11-16T14:55:41.187Z,-8.82
2022-11-16T14:58:21.076Z,-8.96
2022-11-16T15:01:21.748Z,-9.11
2022-11-16T15:04:07.750Z,-9.19
2022-11-16T15:07:01.933Z,-9.23
2022-11-16T15:09:49.147Z,-9.14
2022-11-16T15:12:53.747Z,-8.99
2022-11-16T15:15:36.775Z,-9.12
2022-11-16T15:18:38.211Z,-9.20
2022-11-16T15:21:38.405Z,-9.42
2022-11-16T15:24:30.523Z,-9.60
2022-11-16T15:27:26.189Z,-9.64
2022-11-16T15:30:28.047Z,-9.86
2022-11-16T15:33:23.449Z,-9.82
2022-11-16T15:36:11.697Z,-9.90
2022-11-16T15:38:51.337Z,-9.82
2022-11-16T15:41:37.997Z,-9.89
2022-11-16T15:44:29.377Z,-10.00
2022-11-16T15:47:48.316Z,-9.87
2022-11-16T15:50:34.651Z,-9.99
2022-11-16T15:53:14.024Z,-10.02
2022-11-16T15:56:12.620Z,-10.13
2022-11-16T15:59:16.721Z,-10.06
2022-11-16T16:01:59.497Z,-10.00
2022-11-16T16:04:54.809Z,-9.88
2022-11-16T16:07:50.239Z,-9.85
2022-11-16T16:10:41.908Z,-9.88
2022-11-16T16:13:30.375Z,-9.96
2022-11-16T16:16:31.834Z,-10.01
2022-11-16T16:19:42.663Z,-9.98
2022-11-16T16:22:43.619Z,-9.89
2022-11-16T16:25:50.707Z,-10.38
2022-11-16T16:28:42.753Z,-9.60
2022-11-16T16:31:35.465Z,-9.52
2022-11-16T16:34:26.958Z,-9.52
2022-11-16T16:37:05.826Z,-9.45
2022-11-16T16:40:02.560Z,-9.53
2022-11-16T16:43:11.441Z,-9.48
2022-11-16T16:49:15.669Z,-9.29
2022-11-16T16:52:02.017Z,-9.21
2022-11-16T16:57:55.436Z,-9.02
2022-11-16T17:03:57.550Z,-9.22
2022-11-16T17:06:36.528Z,-9.42
2022-11-16T17:09:13.973Z,-9.30
2022-11-16T17:12:24.797Z,-9.39
2022-11-16T17:15:19.624Z,-9.61
2022-11-16T17:18:06.681Z,-9.80
2022-11-16T17:20:51.189Z,-9.83
2022-11-16T17:26:31.240Z,-9.95
2022-11-16T17:29:10.212Z,-9.99
2022-11-16T17:31:57.182Z,-10.24
2022-11-16T17:34:46.159Z,-10.35
2022-11-16T17:37:35.456Z,-10.48
2022-11-16T17:40:38.938Z,-10.50
2022-11-16T17:43:35.906Z,-10.56
2022-11-16T17:46:34.652Z,-10.73
2022-11-16T17:49:24.137Z,-10.84
2022-11-16T17:52:05.298Z,-10.78
2022-11-16T17:54:42.354Z,-10.71
2022-11-16T17:57:20.047Z,-10.71
2022-11-16T18:00:08.182Z,-10.60
2022-11-16T18:02:54.683Z,-10.38
2022-11-16T18:06:19.221Z,-10.22
2022-11-16T18:09:25.427Z,-10.28
2022-11-16T18:12:00.735Z,-10.14
2022-11-16T18:15:26.556Z,-10.17
2022-11-16T18:17:58.387Z,-10.12
2022-11-16T18:20:38.848Z,-10.00
2022-11-16T18:23:43.320Z,-10.13
2022-11-16T18:26:51.670Z,-10.14
2022-11-16T18:32:36.589Z,-10.01
2022-11-16T18:35:26.713Z,-10.05
2022-11-16T18:38:06.027Z,-10.07
2022-11-16T18:40:48.950Z,-9.96
2022-11-16T18:43:38.589Z,-10.03
2022-11-16T18:46:32.361Z,-10.03
2022-11-16T18:49:22.655Z,-10.05
2022-11-16T18:52:15.237Z,-10.07
2022-11-16T18:54:52.764Z,-10.02
2022-11-16T18:57:38.034Z,-10.25
2022-11-16T19:00:17.103Z,-9.79
2022-11-16T19:03:11.257Z,-9.88
2022-11-16T19:05:48.073Z,-9.99
2022-11-16T19:08:41.234Z,-9.93
2022-11-16T19:11:28.376Z,-10.31
2022-11-16T19:14:17.619Z,-9.94
2022-11-16T19:17:09.222Z,-10.04
2022-11-16T19:19:53.333Z,-10.10
2022-11-16T19:22:40.187Z,-10.20
2022-11-16T19:25:21.926Z,-10.24
2022-11-16T19:28:05.201Z,-10.14
2022-11-16T19:30:52.190Z,-10.05
2022-11-16T19:33:34.151Z,-9.92
2022-11-16T19:36:38.994Z,-10.05
2022-11-16T19:39:18.595Z,-10.11
2022-11-16T19:42:15.664Z,-9.99
2022-11-16T19:45:08.363Z,-9.81
2022-11-16T19:47:51.104Z,-9.53
2022-11-16T19:50:43.500Z,-9.44
2022-11-16T19:56:43.227Z,-9.36
2022-11-16T19:59:32.604Z,-9.25
2022-11-16T20:02:11.233Z,-9.22
2022-11-16T20:05:01.273Z,-9.08
2022-11-16T20:07:52.051Z,-9.01
2022-11-16T20:10:53.550Z,-8.88
2022-11-16T20:13:39.366Z,-8.72
2022-11-16T20:16:24.327Z,-8.66
2022-11-16T20:19:12.485Z,-8.66
2022-11-16T20:22:03.043Z,-8.55
2022-11-16T20:24:53.900Z,-8.49
2022-11-16T20:28:19.676Z,-8.46
2022-11-16T20:31:36.716Z,-8.32
2022-11-16T20:34:32.403Z,-8.31
2022-11-16T20:37:21.848Z,-8.23
2022-11-16T20:40:07.560Z,-8.12
2022-11-16T20:43:07.169Z,-7.97
2022-11-16T20:46:00.883Z,-7.91
2022-11-16T20:48:51.991Z,-7.95
2022-11-16T20:51:31.375Z,-7.85
2022-11-16T20:54:27.289Z,-7.83
2022-11-16T20:57:22.059Z,-7.56
2022-11-16T21:00:06.403Z,-7.49
2022-11-16T21:06:29.073Z,-7.59
2022-11-16T21:09:26.091Z,-7.62
2022-11-16T21:12:42.799Z,-7.77
2022-11-16T21:15:30.668Z,-7.99
2022-11-16T21:18:30.952Z,-8.08
2022-11-16T21:21:27.928Z,-8.06
2022-11-16T21:24:15.591Z,-8.00
2022-11-16T21:27:00.053Z,-7.95
2022-11-16T21:29:45.554Z,-7.62
2022-11-16T21:32:33.261Z,-7.74
2022-11-16T21:35:26.740Z,-7.88
2022-11-16T21:38:16.964Z,-7.90
2022-11-16T21:40:52.691Z,-7.96
2022-11-16T21:43:47.979Z,-7.96
2022-11-16T21:46:34.091Z,-7.98
2022-11-16T21:49:15.082Z,-7.85
2022-11-16T21:51:56.210Z,-7.77
2022-11-16T21:54:50.946Z,-7.73
2022-11-16T21:57:45.491Z,-7.95
2022-11-16T22:00:59.710Z,-7.64
2022-11-16T22:03:52.617Z,-8.22
2022-11-16T22:06:47.782Z,-7.61
2022-11-16T22:09:24.612Z,-7.41
2022-11-16T22:12:23.929Z,-7.35
2022-11-16T22:15:24.334Z,-7.33
2022-11-16T22:18:12.821Z,-7.33
2022-11-16T22:20:58.505Z,-7.30
2022-11-16T22:23:36.554Z,-7.60
2022-11-16T22:26:21.451Z,-7.23
2022-11-16T22:29:18.976Z,-7.06
2022-11-16T22:32:02.823Z,-6.96
2022-11-16T22:34:40.860Z,-6.82
2022-11-16T22:37:27.116Z,-6.71
2022-11-16T22:40:17.480Z,-6.44
2022-11-16T22:42:59.539Z,-6.25
2022-11-16T22:45:40.758Z,-5.81
2022-11-16T22:48:32.700Z,-5.54
2022-11-16T22:51:17.878Z,-5.47
2022-11-16T22:54:13.988Z,-5.50
2022-11-16T22:57:16.315Z,-5.51
2022-11-16T23:00:10.998Z,-5.32
2022-11-16T23:03:00.071Z,-5.21
2022-11-16T23:05:46.397Z,-5.13
2022-11-16T23:08:31.764Z,-5.11
2022-11-16T23:11:23.679Z,-5.10
2022-11-16T23:14:20.176Z,-5.17
2022-11-16T23:17:22.932Z,-5.06
2022-11-16T23:20:21.335Z,-4.81
2022-11-16T23:23:29.039Z,-4.60
2022-11-16T23:26:47.977Z,-4.53
2022-11-16T23:29:26.064Z,-4.49
2022-11-16T23:32:50.701Z,-4.37
2022-11-16T23:35:58.369Z,-4.12
2022-11-16T23:38:55.255Z,-4.00
2022-11-16T23:41:45.807Z,-3.87
2022-11-16T23:44:40.767Z,-3.76
2022-11-16T23:50:46.903Z,-3.55
2022-11-16T23:53:41.161Z,-3.42
2022-11-16T23:56:21.270Z,-3.36
2022-11-16T23:59:00.002Z,-3.26
